^^
Station Historical Data
Daily Summary for November 22, 2017 Units:  Metric    English   Both
« Previous Day
Next Day »
Daily Weekly Monthly Yearly Custom
  High: Low: Average:
Temperature: 24.1 °C 10.1 °C 15.8 °C
Dew Point: 6.2 °C -4.3 °C 0.5 °C
Humidity: 71% 15% 42%
Wind Speed: 30.6km/h 0km/h 16.1km/h
Wind Gust: 37km/h - -
Wind- - South
Pressure: 1019.5 hPa 1014.1 hPa -
Precipitation: 0 mm    
Historical Graphs
 
 
Tabular Data for November 22, 2017
Time Temperature Dew Point Pressure Wind Wind Speed Wind Gust Humidity Rainfall Rate (Hourly) solar Conditions
00:00 12.9 °C 5.6 °C 1015.5 hPa South 25.9 km/h 37 km/h 61% 0 mm 0.0 W/m2
00:15 12.7 °C 5.6 °C 1015.5 hPa South 30.6 km/h 30.6 km/h 62% 0 mm 0.0 W/m2
00:20 12.6 °C 5.7 °C 1015.8 hPa SSE 22.7 km/h 32.2 km/h 63% 0 mm 0.0 W/m2
00:25 12.4 °C 5.8 °C 1015.5 hPa South 20.9 km/h 30.6 km/h 64% 0 mm 0.0 W/m2
00:35 12.1 °C 5.9 °C 1015.8 hPa South 27.4 km/h 35.4 km/h 66% 0 mm 0.0 W/m2
00:45 11.8 °C 6.1 °C 1015.8 hPa South 20.9 km/h 29 km/h 68% 0 mm 0.0 W/m2
00:50 11.7 °C 6 °C 1015.8 hPa South 24.1 km/h 30.6 km/h 68% 0 mm 0.0 W/m2
00:55 11.7 °C 6 °C 1015.8 hPa South 27.4 km/h 33.8 km/h 68% 0 mm 0.0 W/m2
01:10 11.3 °C 6 °C 1015.8 hPa SSW 28.8 km/h 32.2 km/h 70% 0 mm 0.0 W/m2
01:15 11.3 °C 6 °C 1016.1 hPa South 22.7 km/h 33.8 km/h 70% 0 mm 0.0 W/m2
01:30 11.3 °C 6.2 °C 1016.1 hPa South 24.1 km/h 29 km/h 71% 0 mm 0.0 W/m2
01:35 11.3 °C 6.2 °C 1016.1 hPa South 17.7 km/h 24.1 km/h 71% 0 mm 0.0 W/m2
01:40 11.3 °C 6 °C 1016.1 hPa SSE 25.9 km/h 29 km/h 70% 0 mm 0.0 W/m2
01:51 11.3 °C 6 °C 1016.1 hPa SSE 19.5 km/h 25.7 km/h 70% 0 mm 0.0 W/m2
02:16 11.3 °C 5.6 °C 1016.5 hPa South 22.7 km/h 24.1 km/h 68% 0 mm 0.0 W/m2
02:21 11.2 °C 5.5 °C 1016.5 hPa SSE 19.5 km/h 24.1 km/h 68% 0 mm 0.0 W/m2
02:26 11.2 °C 5.5 °C 1016.5 hPa South 20.9 km/h 25.7 km/h 68% 0 mm 0.0 W/m2
02:36 11.2 °C 5.7 °C 1016.1 hPa SSE 25.9 km/h 29 km/h 69% 0 mm 0.0 W/m2
02:46 11.1 °C 5.4 °C 1016.5 hPa SSE 19.5 km/h 27.4 km/h 68% 0 mm 0.0 W/m2
02:51 11.1 °C 5.4 °C 1016.5 hPa SSE 22.7 km/h 29 km/h 68% 0 mm 0.0 W/m2
02:56 11.1 °C 5.2 °C 1016.5 hPa SSE 17.7 km/h 29 km/h 67% 0 mm 0.0 W/m2
03:16 11.1 °C 5 °C 1016.5 hPa SE 22.7 km/h 27.4 km/h 66% 0 mm 0.0 W/m2
03:21 11.1 °C 5 °C 1016.5 hPa SSE 22.7 km/h 25.7 km/h 66% 0 mm 0.0 W/m2
03:26 11.2 °C 5.1 °C 1016.5 hPa SSE 20.9 km/h 24.1 km/h 66% 0 mm 0.0 W/m2
03:31 11.1 °C 4.8 °C 1016.8 hPa SSE 27.4 km/h 27.4 km/h 65% 0 mm 0.0 W/m2
03:36 11.1 °C 4.8 °C 1016.8 hPa SSE 22.7 km/h 25.7 km/h 65% 0 mm 0.0 W/m2
03:41 11 °C 4.7 °C 1016.8 hPa SSE 25.9 km/h 29 km/h 65% 0 mm 0.0 W/m2
03:46 10.9 °C 4.6 °C 1016.8 hPa SSE 16.3 km/h 29 km/h 65% 0 mm 0.0 W/m2
03:51 10.9 °C 4.4 °C 1016.8 hPa SSE 24.1 km/h 29 km/h 64% 0 mm 0.0 W/m2
04:11 10.8 °C 4.3 °C 1016.8 hPa SSE 16.3 km/h 25.7 km/h 64% 0 mm 0.0 W/m2
04:16 10.8 °C 4.3 °C 1016.8 hPa SSE 24.1 km/h 27.4 km/h 64% 0 mm 0.0 W/m2
04:26 10.7 °C 4.2 °C 1017.2 hPa SSE 22.7 km/h 27.4 km/h 64% 0 mm 0.0 W/m2
04:36 10.7 °C 3.9 °C 1016.8 hPa SSE 17.7 km/h 29 km/h 63% 0 mm 0.0 W/m2
04:41 10.6 °C 3.8 °C 1017.2 hPa SSE 25.9 km/h 30.6 km/h 63% 0 mm 0.0 W/m2
04:46 10.5 °C 3.8 °C 1017.2 hPa SSE 25.9 km/h 30.6 km/h 63% 0 mm 0.0 W/m2
05:01 10.4 °C 3.2 °C 1017.2 hPa SE 19.5 km/h 27.4 km/h 61% 0 mm 0.0 W/m2
05:06 10.4 °C 3 °C 1017.5 hPa SSE 13 km/h 27.4 km/h 60% 0 mm 0.0 W/m2
05:16 10.4 °C 3 °C 1017.5 hPa SSE 25.9 km/h 30.6 km/h 60% 0 mm 0.0 W/m2
05:21 10.3 °C 2.9 °C 1017.5 hPa SSE 24.1 km/h 30.6 km/h 60% 0 mm 0.0 W/m2
05:26 10.2 °C 3 °C 1017.5 hPa SSE 25.9 km/h 33.8 km/h 61% 0 mm 0.0 W/m2
05:36 10.1 °C 2.7 °C 1017.5 hPa South 17.7 km/h 29 km/h 60% 0 mm 0.0 W/m2
05:46 10.1 °C 2.7 °C 1017.5 hPa SSE 17.7 km/h 25.7 km/h 60% 0 mm 0.0 W/m2
05:57 10.1 °C 2.9 °C 1017.5 hPa SSE 20.9 km/h 24.1 km/h 61% 0 mm 9.0 W/m2
06:16 10.1 °C 2.9 °C 1017.8 hPa SSE 19.5 km/h 27.4 km/h 61% 0 mm 33.0 W/m2
06:42 10.2 °C 3 °C 1018.2 hPa SSE 22.7 km/h 25.7 km/h 61% 0 mm 62.0 W/m2
06:52 10.2 °C 2.8 °C 1018.2 hPa SSE 19.5 km/h 22.5 km/h 60% 0 mm 83.0 W/m2
07:15 10.4 °C 3 °C 1018.8 hPa SSE 19.5 km/h 29 km/h 60% 0 mm 149.0 W/m2
07:28 10.6 °C 3.2 °C 1018.8 hPa South 17.7 km/h 24.1 km/h 60% 0 mm 171.0 W/m2
07:42 11.1 °C 3.4 °C 1019.2 hPa SSE 19.5 km/h 22.5 km/h 59% 0 mm 244.0 W/m2
07:57 11.2 °C 3.2 °C 1019.2 hPa South 16.3 km/h 22.5 km/h 58% 0 mm 250.0 W/m2
08:12 11.6 °C 2.9 °C 1019.2 hPa SSE 13 km/h 20.9 km/h 55% 0 mm 281.0 W/m2
08:38 12.1 °C 3.1 °C 1019.5 hPa South 17.7 km/h 19.3 km/h 54% 0 mm 279.0 W/m2
08:53 12.3 °C 2.7 °C 1019.2 hPa South 19.5 km/h 19.5 km/h 52% 0 mm 524.0 W/m2
09:22 13.5 °C 1.8 °C 1018.8 hPa South 11.1 km/h 16.1 km/h 45% 0 mm 679.0 W/m2
10:23 15.6 °C 0.2 °C 1018.8 hPa Calm     35% 0 mm 798.0 W/m2
10:47 16.6 °C -0.2 °C 1018.5 hPa South 6.4 km/h 11.3 km/h 32% 0 mm 826.0 W/m2
11:05 17.6 °C -1.6 °C 1018.2 hPa Calm     27% 0 mm 772.0 W/m2
11:24 18.1 °C -1.7 °C 1018.2 hPa South 11.1 km/h 12.9 km/h 26% 0 mm 947.0 W/m2
11:30 18.3 °C -1.5 °C 1018.2 hPa South 1.4 km/h 1.6 km/h 26% 0 mm 960.0 W/m2
11:35 18.6 °C -1.8 °C 1018.2 hPa Calm     25% 0 mm 974.0 W/m2
11:46 18.9 °C -1.6 °C 1017.8 hPa Calm     25% 0 mm 937.0 W/m2
12:16 19.5 °C -1.6 °C 1017.5 hPa Calm     24% 0 mm 940.0 W/m2
12:29 20.1 °C -2.3 °C 1017.2 hPa Calm     22% 0 mm 991.0 W/m2
12:41 20.1 °C -2.3 °C 1017.2 hPa Calm   8 km/h 22% 0 mm 993.0 W/m2
13:26 21.9 °C -2.1 °C 1016.5 hPa South 11.1 km/h 14.5 km/h 20% 0 mm 986.0 W/m2
14:34 23.2 °C -2.4 °C 1015.5 hPa SSE 6.4 km/h 14.5 km/h 18% 0 mm 912.0 W/m2
14:50 23.4 °C -2.3 °C 1015.1 hPa South 19.5 km/h 22.5 km/h 18% 0 mm 889.0 W/m2
15:11 24 °C -3.4 °C 1015.1 hPa South 19.5 km/h 22.5 km/h 16% 0 mm 814.0 W/m2
16:04 24.1 °C -4.2 °C 1014.4 hPa South 20.9 km/h 20.9 km/h 15% 0 mm 596.0 W/m2
16:49 23.9 °C -4.3 °C 1014.4 hPa South 17.7 km/h 22.5 km/h 15% 0 mm 301.0 W/m2
17:02 24.1 °C -4.2 °C 1014.4 hPa South 11.1 km/h 19.3 km/h 15% 0 mm 353.0 W/m2
17:09 23.9 °C -4.3 °C 1014.4 hPa South 24.1 km/h 24.1 km/h 15% 0 mm 234.0 W/m2
17:34 23.9 °C -4.3 °C 1014.1 hPa South 16.3 km/h 24.1 km/h 15% 0 mm 283.0 W/m2
17:40 23.8 °C -3.5 °C 1014.4 hPa South 19.5 km/h 20.9 km/h 16% 0 mm 262.0 W/m2
17:48 23.9 °C -3.5 °C 1014.1 hPa South 13 km/h 17.7 km/h 16% 0 mm 207.0 W/m2
18:00 23.6 °C -3.7 °C 1014.4 hPa South 16.3 km/h 25.7 km/h 16% 0 mm 202.0 W/m2
18:10 23.4 °C -3.9 °C 1014.4 hPa South 19.5 km/h 25.7 km/h 16% 0 mm 63.0 W/m2
18:16 23.1 °C -4.1 °C 1014.4 hPa SSW 19.5 km/h 22.5 km/h 16% 0 mm 77.0 W/m2
18:29 23 °C -4.2 °C 1014.4 hPa SSW 20.9 km/h 22.5 km/h 16% 0 mm 141.0 W/m2
19:13 22.4 °C -3.9 °C 1014.8 hPa South 20.9 km/h 24.1 km/h 17% 0 mm 19.0 W/m2
19:52 21.4 °C -3.9 °C 1014.8 hPa South 13 km/h 19.3 km/h 18% 0 mm 0.0 W/m2
20:00 21.2 °C -4.1 °C 1014.8 hPa South 16.3 km/h 20.9 km/h 18% 0 mm 0.0 W/m2
20:05 21.1 °C -3.4 °C 1014.8 hPa South 16.3 km/h 17.7 km/h 19% 0 mm 0.0 W/m2
20:13 20.9 °C -3.6 °C 1015.1 hPa South 13 km/h 16.1 km/h 19% 0 mm 0.0 W/m2
20:33 20.6 °C -3.2 °C 1015.1 hPa SSW 17.7 km/h 20.9 km/h 20% 0 mm 0.0 W/m2
20:45 20.5 °C -2.6 °C 1015.1 hPa SSW 17.7 km/h 20.9 km/h 21% 0 mm 0.0 W/m2
21:00 20.2 °C -2.8 °C 1015.1 hPa South 19.5 km/h 29 km/h 21% 0 mm 0.0 W/m2
21:09 20 °C -3 °C 1015.1 hPa South 17.7 km/h 22.5 km/h 21% 0 mm 0.0 W/m2
21:16 19.8 °C -3.2 °C 1015.1 hPa South 14.3 km/h 20.9 km/h 21% 0 mm 0.0 W/m2
21:25 19.6 °C -2.7 °C 1015.1 hPa South 17.7 km/h 22.5 km/h 22% 0 mm 0.0 W/m2
21:30 19.4 °C -2.9 °C 1015.1 hPa South 19.5 km/h 22.5 km/h 22% 0 mm 0.0 W/m2
21:35 19.3 °C -3 °C 1015.5 hPa South 7.9 km/h 16.1 km/h 22% 0 mm 0.0 W/m2
21:40 19.2 °C -3 °C 1015.5 hPa South 9.7 km/h 14.5 km/h 22% 0 mm 0.0 W/m2
21:45 19.1 °C -3.1 °C 1015.5 hPa South 7.9 km/h 12.9 km/h 22% 0 mm 0.0 W/m2
21:50 19 °C -3.2 °C 1015.5 hPa South 13 km/h 13 km/h 22% 0 mm 0.0 W/m2
22:00 18.9 °C -3.3 °C 1015.8 hPa South 11.1 km/h 14.5 km/h 22% 0 mm 0.0 W/m2
22:05 18.8 °C -3.4 °C 1015.8 hPa South 11.1 km/h 14.5 km/h 22% 0 mm 0.0 W/m2
22:15 18.7 °C -3.5 °C 1015.8 hPa South 9.7 km/h 14.5 km/h 22% 0 mm 0.0 W/m2
22:20 18.6 °C -3.5 °C 1015.8 hPa South 13 km/h 16.1 km/h 22% 0 mm 0.0 W/m2
22:25 18.6 °C -3.5 °C 1015.8 hPa South 9.7 km/h 14.5 km/h 22% 0 mm 0.0 W/m2
22:31 18.4 °C -3.1 °C 1016.1 hPa South 9.7 km/h 11.3 km/h 23% 0 mm 0.0 W/m2
22:40 18.2 °C -3.3 °C 1016.1 hPa South 11.1 km/h 11.3 km/h 23% 0 mm 0.0 W/m2
22:51 18 °C -3.5 °C 1016.1 hPa South 7.9 km/h 8 km/h 23% 0 mm 0.0 W/m2
22:56 18 °C -3.5 °C 1016.1 hPa South 7.9 km/h 11.3 km/h 23% 0 mm 0.0 W/m2
23:01 17.8 °C -3.6 °C 1016.1 hPa South 6.4 km/h 8 km/h 23% 0 mm 0.0 W/m2
23:11 17.6 °C -3.8 °C 1016.1 hPa South 4.7 km/h 9.7 km/h 23% 0 mm 0.0 W/m2
23:16 17.5 °C -3.3 °C 1015.8 hPa South 7.9 km/h 14.5 km/h 24% 0 mm 0.0 W/m2
23:21 17.5 °C -3.9 °C 1015.8 hPa South 4.7 km/h 12.9 km/h 23% 0 mm 0.0 W/m2
23:26 17.7 °C -3.7 °C 1016.1 hPa South 6.4 km/h 8 km/h 23% 0 mm 0.0 W/m2
23:31 17.7 °C -3.7 °C 1015.8 hPa South 9.7 km/h 9.7 km/h 23% 0 mm 0.0 W/m2
23:36 17.6 °C -3.8 °C 1015.8 hPa Calm   11.3 km/h 23% 0 mm 0.0 W/m2
23:47 17.7 °C -3.7 °C 1015.8 hPa Calm     23% 0 mm 0.0 W/m2
Canyon Roadhouse, Fishriver Canyon, Namibia
Compliments of Weather Underground - 2.25 mb